Time;durP1;ratioP1;P1;durP2;ratioP2;P2;SDS_P1;SDS_P2;PMS_P1;PMS_P2;Temp;Humidity;BMP_temperature;BMP_pressure;BME280_temperature;BME280_humidity;BME280_pressure;Samples;Min_cycle;Max_cycle;Signal;HPM_P1;HPM_P2
2023/09/27 00:00:10;;;;;;;40.78;28.60;;;;;;;17.11;100.00;100252.44;5074808;28;20135;-82
2023/09/27 00:02:37;;;;;;;38.88;29.52;;;;;;;17.32;100.00;100288.84;5074971;28;20025;-82
2023/09/27 00:05:06;;;;;;;39.28;30.70;;;;;;;17.12;100.00;100261.19;5074791;28;20499;-82
2023/09/27 00:07:36;;;;;;;43.65;31.23;;;;;;;17.36;100.00;100308.78;5075029;28;20024;-82
2023/09/27 00:10:02;;;;;;;43.55;31.88;;;;;;;17.10;100.00;100261.25;5074900;28;20033;-82
2023/09/27 00:12:28;;;;;;;45.92;33.00;;;;;;;17.34;100.00;100300.13;5074647;28;20459;-82
2023/09/27 00:14:55;;;;;;;38.60;29.30;;;;;;;17.13;100.00;100270.75;5074783;28;20040;-82
2023/09/27 00:17:21;;;;;;;49.15;32.15;;;;;;;17.22;100.00;100291.22;5074517;28;20036;-83
2023/09/27 00:19:46;;;;;;;46.25;32.22;;;;;;;17.08;100.00;100264.97;5074959;28;20107;-82
2023/09/27 00:22:12;;;;;;;40.47;30.85;;;;;;;17.25;100.00;100291.03;5074626;28;20020;-82
2023/09/27 00:24:38;;;;;;;45.00;32.10;;;;;;;16.99;100.00;100247.13;5074794;28;20024;-82
2023/09/27 00:27:04;;;;;;;41.80;29.83;;;;;;;17.05;100.00;100265.13;5074645;28;20513;-82
2023/09/27 00:29:29;;;;;;;44.25;32.03;;;;;;;17.03;100.00;100265.25;5074637;28;20039;-83
2023/09/27 00:31:54;;;;;;;40.70;29.52;;;;;;;16.99;100.00;100249.75;5074379;28;20032;-82
2023/09/27 00:34:20;;;;;;;43.38;33.85;;;;;;;17.14;100.00;100281.19;5074348;28;20111;-82
2023/09/27 00:36:45;;;;;;;40.97;32.25;;;;;;;17.21;100.00;100289.56;5074555;28;20034;-83
2023/09/27 00:39:10;;;;;;;42.13;32.65;;;;;;;16.98;100.00;100253.31;5074490;28;20067;-82
2023/09/27 00:41:36;;;;;;;45.97;33.83;;;;;;;17.05;100.00;100259.88;5073071;28;20132;-83
2023/09/27 00:44:02;;;;;;;52.35;35.28;;;;;;;17.08;100.00;100278.97;5074256;28;20025;-83
2023/09/27 00:46:27;;;;;;;45.85;33.53;;;;;;;17.01;100.00;100266.28;5073967;28;20584;-82
2023/09/27 00:48:54;;;;;;;50.85;35.63;;;;;;;16.90;100.00;100244.13;5074000;28;20028;-82
2023/09/27 00:51:19;;;;;;;40.17;32.63;;;;;;;17.09;100.00;100270.09;5073989;28;20025;-83
2023/09/27 00:53:47;;;;;;;44.78;32.22;;;;;;;17.19;100.00;100283.53;5074103;28;20050;-82
2023/09/27 00:56:12;;;;;;;41.05;31.10;;;;;;;17.09;100.00;100277.16;5073796;28;20174;-82
2023/09/27 00:58:38;;;;;;;43.80;32.67;;;;;;;16.94;100.00;100247.41;5072715;28;20016;-83
2023/09/27 01:01:03;;;;;;;44.78;32.35;;;;;;;17.06;100.00;100265.03;5073831;28;20029;-82
2023/09/27 01:03:29;;;;;;;42.53;31.35;;;;;;;17.11;100.00;100277.94;5073874;28;20515;-83
2023/09/27 01:05:55;;;;;;;41.00;29.75;;;;;;;17.14;100.00;100281.19;5073936;28;20031;-83
2023/09/27 01:08:21;;;;;;;40.15;30.45;;;;;;;17.13;100.00;100276.03;5072354;28;20016;-83
2023/09/27 01:10:47;;;;;;;43.05;32.15;;;;;;;17.17;100.00;100281.00;5073736;28;20142;-83
2023/09/27 01:13:13;;;;;;;41.92;31.40;;;;;;;16.91;100.00;100245.81;5073448;28;20376;-82
2023/09/27 01:15:38;;;;;;;41.20;30.95;;;;;;;17.11;100.00;100275.28;5073548;28;20032;-83
2023/09/27 01:18:04;;;;;;;37.17;28.33;;;;;;;17.03;100.00;100267.88;5073773;28;20028;-82
2023/09/27 01:20:32;;;;;;;36.55;27.88;;;;;;;16.84;100.00;100236.59;5073369;28;20024;-83
2023/09/27 01:23:02;;;;;;;39.40;30.00;;;;;;;16.92;100.00;100254.56;5073628;28;20082;-82
2023/09/27 01:25:29;;;;;;;36.83;28.73;;;;;;;16.69;100.00;100224.41;5073224;28;20506;-82
2023/09/27 01:27:56;;;;;;;40.45;28.67;;;;;;;16.59;100.00;100207.50;5073366;28;20025;-83
2023/09/27 01:30:22;;;;;;;39.45;28.90;;;;;;;16.85;100.00;100267.22;5072993;28;20060;-82
2023/09/27 01:32:47;;;;;;;36.33;27.23;;;;;;;16.64;100.00;100240.47;5072211;28;20067;-82
2023/09/27 01:35:13;;;;;;;39.33;27.83;;;;;;;16.80;100.00;100281.63;5073396;28;20055;-83
2023/09/27 01:37:38;;;;;;;39.30;28.63;;;;;;;16.83;100.00;100284.91;5073401;28;20024;-82
2023/09/27 01:40:09;;;;;;;36.90;26.90;;;;;;;16.77;100.00;100282.69;5071706;28;20047;-82
2023/09/27 01:42:35;;;;;;;35.05;28.10;;;;;;;16.66;100.00;100266.69;5072934;28;20017;-82
2023/09/27 01:45:00;;;;;;;36.80;27.58;;;;;;;16.74;100.00;100282.03;5071597;28;20029;-82
2023/09/27 01:47:25;;;;;;;36.78;28.10;;;;;;;16.43;100.00;100236.53;5072994;28;20103;-83
2023/09/27 01:49:51;;;;;;;34.22;27.23;;;;;;;16.55;100.00;100258.59;5072939;28;20107;-83
2023/09/27 01:52:16;;;;;;;34.92;26.33;;;;;;;16.42;100.00;100248.00;5072428;28;20111;-83
2023/09/27 01:54:41;;;;;;;36.75;27.40;;;;;;;16.55;100.00;100271.75;5072931;28;20028;-83
2023/09/27 01:57:07;;;;;;;35.17;28.58;;;;;;;16.54;100.00;100270.91;5073026;28;20060;-82
2023/09/27 01:59:32;;;;;;;33.10;27.50;;;;;;;16.45;100.00;100256.53;5072464;28;20447;-82
2023/09/27 02:01:57;;;;;;;38.88;29.17;;;;;;;16.50;100.00;100260.66;5072835;28;20547;-82
2023/09/27 02:04:24;;;;;;;45.05;31.00;;;;;;;16.42;100.00;100255.88;5072600;28;20483;-83
2023/09/27 02:06:49;;;;;;;42.53;29.98;;;;;;;16.29;100.00;100237.38;5072696;28;20028;-82
2023/09/27 02:09:14;;;;;;;38.15;29.70;;;;;;;16.45;100.00;100269.69;5072301;28;20028;-82
2023/09/27 02:11:39;;;;;;;35.05;28.42;;;;;;;16.06;100.00;100212.50;5072534;28;20371;-83
2023/09/27 02:14:05;;;;;;;41.70;28.90;;;;;;;16.30;100.00;100254.84;5072322;28;20523;-82
2023/09/27 02:16:33;;;;;;;36.63;27.40;;;;;;;16.39;100.00;100275.34;5071112;28;20104;-82
2023/09/27 02:18:58;;;;;;;38.38;29.55;;;;;;;16.26;100.00;100255.94;5072567;28;20140;-83
2023/09/27 02:21:23;;;;;;;40.42;29.58;;;;;;;16.20;100.00;100248.47;5072167;28;20021;-83
2023/09/27 02:23:49;;;;;;;34.67;27.40;;;;;;;15.91;100.00;100203.75;5071015;28;20025;-82
2023/09/27 02:26:15;;;;;;;36.42;27.92;;;;;;;16.26;100.00;100270.88;5049640;28;20037;-82
2023/09/27 02:28:41;;;;;;;39.63;27.83;;;;;;;16.08;100.00;100249.19;5049750;28;20159;-82
2023/09/27 02:31:10;;;;;;;35.65;26.42;;;;;;;15.96;100.00;100232.38;5033051;28;20181;-83
2023/09/27 02:33:37;;;;;;;36.05;26.02;;;;;;;16.19;100.00;100267.81;5049525;28;20040;-83
2023/09/27 02:36:03;;;;;;;35.22;26.98;;;;;;;16.08;100.00;100254.44;5049951;28;20053;-82
2023/09/27 02:38:28;;;;;;;32.55;25.20;;;;;;;16.16;100.00;100267.97;5049578;28;20412;-83
2023/09/27 02:40:54;;;;;;;36.30;27.15;;;;;;;16.14;100.00;100267.22;5049450;28;20037;-82
2023/09/27 02:43:19;;;;;;;32.65;25.58;;;;;;;15.68;100.00;100192.00;5032634;28;20555;-83
2023/09/27 02:45:45;;;;;;;33.72;26.05;;;;;;;15.88;100.00;100229.34;5049574;28;20534;-83
2023/09/27 02:48:10;;;;;;;38.10;25.42;;;;;;;15.89;100.00;100234.53;5049626;28;20476;-82
2023/09/27 02:50:36;;;;;;;32.83;25.77;;;;;;;16.04;100.00;100261.66;5049369;28;20043;-82
2023/09/27 02:53:01;;;;;;;32.83;25.02;;;;;;;15.93;100.00;100240.44;5049517;28;20174;-83
2023/09/27 02:55:28;;;;;;;33.00;26.63;;;;;;;16.12;100.00;100284.84;5049381;28;20028;-83
2023/09/27 02:57:53;;;;;;;36.70;29.25;;;;;;;16.09;100.00;100269.25;5061140;28;20394;-83
2023/09/27 03:00:19;;;;;;;37.40;28.45;;;;;;;16.08;100.00;100257.91;5071820;28;20032;-83
2023/09/27 03:02:45;;;;;;;33.22;26.58;;;;;;;16.14;100.00;100261.97;5070702;28;20025;-83
2023/09/27 03:05:11;;;;;;;38.53;28.80;;;;;;;15.90;100.00;100230.13;5071362;28;20455;-83
2023/09/27 03:07:38;;;;;;;35.05;27.40;;;;;;;16.18;100.00;100274.84;5071642;28;20073;-83
2023/09/27 03:10:10;;;;;;;34.75;26.58;;;;;;;15.93;100.00;100240.44;5071733;28;20099;-82
2023/09/27 03:12:36;;;;;;;40.08;28.80;;;;;;;16.10;100.00;100260.47;5071717;28;20032;-83
2023/09/27 03:15:01;;;;;;;38.63;28.30;;;;;;;16.11;100.00;100270.88;5072176;28;20198;-82
2023/09/27 03:17:27;;;;;;;33.65;27.48;;;;;;;16.03;100.00;100261.75;5071648;28;20028;-83
2023/09/27 03:19:53;;;;;;;40.28;28.45;;;;;;;15.84;100.00;100238.34;5071708;28;20060;-83
2023/09/27 03:22:18;;;;;;;39.40;28.55;;;;;;;15.99;100.00;100268.97;5071648;28;20031;-83
2023/09/27 03:24:44;;;;;;;32.65;26.33;;;;;;;15.84;100.00;100240.97;5071518;28;20024;-83
2023/09/27 03:27:09;;;;;;;41.92;27.80;;;;;;;15.79;100.00;100238.63;5071632;28;20029;-83
2023/09/27 03:29:35;;;;;;;34.20;26.58;;;;;;;15.68;100.00;100225.28;5071501;28;20103;-83
2023/09/27 03:32:00;;;;;;;34.22;26.63;;;;;;;15.73;100.00;100246.88;5071706;28;20037;-83
2023/09/27 03:34:26;;;;;;;34.55;25.95;;;;;;;15.89;100.00;100278.34;5071321;28;20028;-83
2023/09/27 03:36:55;;;;;;;34.72;27.65;;;;;;;15.65;100.00;100243.84;5071602;28;20051;-83
2023/09/27 03:39:22;;;;;;;33.35;25.70;;;;;;;15.89;100.00;100280.97;5071248;28;20566;-83
2023/09/27 03:41:48;;;;;;;38.42;29.48;;;;;;;15.61;100.00;100243.13;5071399;28;20037;-83
2023/09/27 03:44:13;;;;;;;35.97;28.10;;;;;;;15.76;100.00;100282.59;5071831;28;20154;-83
2023/09/27 03:46:38;;;;;;;34.90;26.33;;;;;;;15.75;100.00;100281.75;5071390;28;20528;-83
2023/09/27 03:49:04;;;;;;;35.85;27.98;;;;;;;15.70;100.00;100273.31;5070196;28;20111;-83
2023/09/27 03:51:29;;;;;;;31.38;25.70;;;;;;;15.46;100.00;100236.13;5069900;28;20601;-82
2023/09/27 03:53:54;;;;;;;35.28;27.33;;;;;;;15.38;100.00;100220.84;5071286;28;20029;-82
2023/09/27 03:56:20;;;;;;;30.35;24.77;;;;;;;15.62;100.00;100254.47;5071333;28;20048;-83
2023/09/27 03:58:45;;;;;;;32.75;26.63;;;;;;;15.75;100.00;100284.38;5070011;28;20016;-82
2023/09/27 04:01:11;;;;;;;34.97;27.10;;;;;;;15.57;100.00;100251.28;5071379;28;20395;-83
2023/09/27 04:03:36;;;;;;;37.58;28.83;;;;;;;15.66;100.00;100274.41;5071049;28;20106;-82
2023/09/27 04:06:01;;;;;;;36.95;25.88;;;;;;;15.55;100.00;100251.38;5071156;28;20085;-82
2023/09/27 04:08:27;;;;;;;40.65;31.17;;;;;;;15.73;100.00;100285.44;5071068;28;20109;-82
2023/09/27 04:10:52;;;;;;;49.67;33.55;;;;;;;15.52;100.00;100256.81;5071469;28;20035;-83
2023/09/27 04:13:17;;;;;;;43.90;33.13;;;;;;;15.50;100.00;100248.16;5071581;28;20075;-82
2023/09/27 04:15:43;;;;;;;40.75;31.02;;;;;;;15.64;100.00;100268.38;5071554;28;20028;-82
2023/09/27 04:18:08;;;;;;;35.88;28.52;;;;;;;15.52;100.00;100242.84;5074881;28;20021;-82
2023/09/27 04:20:34;;;;;;;43.80;29.70;;;;;;;15.66;100.00;100266.53;5074517;28;20024;-82
2023/09/27 04:22:59;;;;;;;39.53;30.77;;;;;;;15.64;100.00;100255.25;5074753;28;20055;-82
2023/09/27 04:25:24;;;;;;;44.33;30.52;;;;;;;15.70;100.00;100270.69;5074256;28;20047;-82
2023/09/27 04:27:50;;;;;;;43.03;32.45;;;;;;;15.76;100.00;100287.84;5074530;28;20070;-83
2023/09/27 04:30:18;;;;;;;46.78;32.30;;;;;;;15.72;100.00;100289.84;5074660;28;20112;-82
2023/09/27 04:32:51;;;;;;;40.45;30.60;;;;;;;15.50;100.00;100244.69;5073008;28;20024;-82
2023/09/27 04:35:17;;;;;;;36.33;28.13;;;;;;;15.72;100.00;100281.94;5074448;28;20040;-82
2023/09/27 04:37:42;;;;;;;37.15;28.08;;;;;;;15.43;100.00;100236.34;5074048;28;20024;-82
2023/09/27 04:40:10;;;;;;;35.15;27.67;;;;;;;15.56;100.00;100274.06;5074348;28;20041;-83
2023/09/27 04:42:36;;;;;;;42.22;29.50;;;;;;;15.63;100.00;100278.03;5074238;28;20033;-82
2023/09/27 04:45:02;;;;;;;36.83;29.23;;;;;;;15.42;100.00;100251.25;5074336;28;20487;-82
2023/09/27 04:47:27;;;;;;;42.47;30.77;;;;;;;15.57;100.00;100275.75;5074021;28;20490;-83
2023/09/27 04:49:52;;;;;;;40.22;30.58;;;;;;;15.58;100.00;100281.84;5074205;28;20025;-83
2023/09/27 04:52:20;;;;;;;39.38;28.50;;;;;;;15.54;100.00;100275.91;5074005;28;20031;-83
2023/09/27 04:54:45;;;;;;;40.28;30.08;;;;;;;15.40;100.00;100257.50;5074021;28;20029;-82
2023/09/27 04:57:11;;;;;;;42.00;31.88;;;;;;;15.58;100.00;100292.34;5074150;28;20379;-83
2023/09/27 04:59:37;;;;;;;42.45;30.70;;;;;;;15.40;100.00;100270.63;5073843;28;20456;-82
2023/09/27 05:02:02;;;;;;;39.90;29.13;;;;;;;15.66;100.00;100298.88;5073877;28;20032;-82
2023/09/27 05:04:28;;;;;;;44.25;32.53;;;;;;;15.57;100.00;100288.88;5073627;28;20024;-83
2023/09/27 05:06:53;;;;;;;39.40;30.90;;;;;;;15.68;100.00;100307.53;5073760;28;20062;-83
2023/09/27 05:09:18;;;;;;;38.88;30.08;;;;;;;15.56;100.00;100268.81;5073995;28;20025;-83
2023/09/27 05:11:46;;;;;;;39.42;30.13;;;;;;;15.76;100.00;100299.22;5073684;28;20036;-82
2023/09/27 05:14:12;;;;;;;44.97;31.90;;;;;;;15.82;100.00;100287.50;5073747;28;20119;-82
2023/09/27 05:16:37;;;;;;;39.50;30.40;;;;;;;16.04;100.00;100298.44;5073435;28;20108;-83
2023/09/27 05:19:03;;;;;;;32.72;26.80;;;;;;;15.99;100.00;100266.34;5073838;28;20028;-82
2023/09/27 05:21:28;;;;;;;33.15;26.70;;;;;;;16.27;100.00;100293.63;5071865;28;20021;-82
2023/09/27 05:23:53;;;;;;;34.80;27.67;;;;;;;16.25;100.00;100262.16;5073468;28;20028;-83
2023/09/27 05:26:19;;;;;;;31.67;26.50;;;;;;;16.38;100.00;100270.16;5073176;28;20028;-83
2023/09/27 05:28:44;;;;;;;40.92;32.20;;;;;;;16.68;100.00;100310.34;5073140;28;20036;-83
2023/09/27 05:31:10;;;;;;;62.58;52.92;;;;;;;16.67;100.00;100276.25;5073424;28;20079;-83
2023/09/27 05:33:35;;;;;;;55.60;44.72;;;;;;;16.84;100.00;100272.59;5073096;28;20055;-83
2023/09/27 05:36:02;;;;;;;42.42;34.60;;;;;;;17.01;100.00;100277.66;5073155;28;20078;-83
2023/09/27 05:38:28;;;;;;;41.33;35.25;;;;;;;17.14;100.00;100281.19;5073079;28;20116;-83
2023/09/27 05:40:53;;;;;;;35.30;27.00;;;;;;;17.25;100.00;100277.88;5073283;28;20485;-83
2023/09/27 05:43:18;;;;;;;33.53;27.90;;;;;;;17.50;100.00;100289.47;5073222;28;20020;-83
2023/09/27 05:45:44;;;;;;;29.17;24.02;;;;;;;17.56;100.00;100276.72;5072838;28;20024;-83
2023/09/27 05:48:09;;;;;;;30.27;23.77;;;;;;;17.83;100.00;100260.09;5073015;28;20024;-83
2023/09/27 05:50:34;;;;;;;25.42;22.13;;;;;;;18.24;100.00;100323.16;5072644;28;20025;-83
2023/09/27 05:53:01;;;;;;;26.35;20.20;;;;;;;17.98;100.00;100261.66;5073031;28;20081;-83
2023/09/27 05:55:27;;;;;;;24.42;20.52;;;;;;;18.39;100.00;100321.28;5072877;28;20032;-83
2023/09/27 05:57:54;;;;;;;24.58;19.80;;;;;;;18.27;100.00;100286.06;5071413;28;20037;-82
2023/09/27 06:00:26;;;;;;;23.52;19.55;;;;;;;18.53;100.00;100301.88;5072816;28;20047;-83
2023/09/27 06:02:52;;;;;;;21.55;17.95;;;;;;;18.71;100.00;100327.03;5072469;28;20032;-83
2023/09/27 06:05:17;;;;;;;22.27;19.83;;;;;;;18.73;100.00;100316.34;5072634;28;20038;-83
2023/09/27 06:07:43;;;;;;;23.52;19.20;;;;;;;18.70;100.00;100286.59;5072568;28;20070;-83
2023/09/27 06:10:08;;;;;;;21.75;16.65;;;;;;;19.24;100.00;100332.09;5073083;28;20066;-83
2023/09/27 06:12:34;;;;;;;20.25;18.15;;;;;;;19.44;100.00;100334.16;5072424;28;20506;-83
2023/09/27 06:14:59;;;;;;;21.85;18.20;;;;;;;19.65;100.00;100322.03;5072599;28;20509;-83
2023/09/27 06:17:25;;;;;;;20.00;17.73;;;;;;;19.96;100.00;100332.13;5072480;28;20490;-83
2023/09/27 06:19:50;;;;;;;18.90;16.33;;;;;;;19.99;100.00;100303.66;5072113;28;20111;-83
2023/09/27 06:22:16;;;;;;;18.65;16.38;;;;;;;20.35;100.00;100329.13;5072475;28;20024;-83
2023/09/27 06:24:42;;;;;;;17.05;15.07;;;;;;;20.22;100.00;100299.25;5072303;28;20093;-83
2023/09/27 06:27:08;;;;;;;16.77;14.55;;;;;;;20.17;100.00;100298.78;5072697;28;20028;-83
2023/09/27 06:29:33;;;;;;;17.50;15.75;;;;;;;20.43;100.00;100323.22;5072135;28;20029;-83
2023/09/27 06:31:59;;;;;;;18.45;16.08;;;;;;;20.54;100.00;100335.69;5072170;28;20067;-83
2023/09/27 06:34:24;;;;;;;18.27;15.43;;;;;;;20.63;100.00;100356.97;5072080;28;20036;-83
2023/09/27 06:36:51;;;;;;;16.58;14.88;;;;;;;20.24;100.00;100307.09;5072063;28;20070;-83
2023/09/27 06:39:19;;;;;;;15.90;14.05;;;;;;;20.54;100.00;100356.84;5071565;28;20025;-83
2023/09/27 06:41:45;;;;;;;19.05;13.98;;;;;;;20.51;100.00;100341.19;5071756;28;20056;-83
2023/09/27 06:44:12;;;;;;;16.58;13.82;;;;;;;20.47;100.00;100345.84;5072559;28;20468;-83
2023/09/27 06:46:37;;;;;;;19.02;14.15;;;;;;;20.52;100.00;100351.69;5071959;28;20111;-83
2023/09/27 06:49:03;;;;;;;17.15;13.15;;;;;;;20.65;100.00;100363.00;5070771;28;20182;-83
2023/09/27 06:51:29;;;;;;;17.40;13.95;;;;;;;20.78;100.00;100365.53;5072085;28;20520;-83
2023/09/27 06:53:55;;;;;;;20.17;14.38;;;;;;;20.79;100.00;100361.09;5071893;28;20024;-83
2023/09/27 06:56:21;;;;;;;14.93;13.18;;;;;;;20.76;100.00;100340.97;5072072;28;20032;-83
2023/09/27 06:58:54;;;;;;;15.18;12.88;;;;;;;20.77;100.00;100326.78;5071304;28;20107;-83
2023/09/27 07:01:19;;;;;;;14.98;12.63;;;;;;;20.80;100.00;100336.28;5071947;28;20385;-83
2023/09/27 07:03:48;;;;;;;18.85;12.88;;;;;;;20.93;100.00;100368.78;5071570;28;20025;-83
2023/09/27 07:06:13;;;;;;;13.85;12.45;;;;;;;20.84;100.00;100346.50;5071759;28;20368;-83
2023/09/27 07:08:40;;;;;;;15.05;11.85;;;;;;;21.16;100.00;100365.16;5071499;28;20036;-83
2023/09/27 07:11:08;;;;;;;14.13;12.07;;;;;;;21.49;100.00;100376.72;5071896;28;20064;-83
2023/09/27 07:13:34;;;;;;;13.80;12.35;;;;;;;20.98;99.93;100275.72;5071841;28;20020;-83
2023/09/27 07:16:26;;;;;;;13.93;12.52;;;;;;;21.71;98.09;100394.38;5071598;28;20642;-83
2023/09/27 07:18:55;;;;;;;16.83;12.50;;;;;;;21.40;96.42;100351.78;5026532;28;20409;-83
2023/09/27 07:21:20;;;;;;;14.82;13.25;;;;;;;21.44;96.63;100355.03;5029121;28;20056;-83
2023/09/27 07:23:47;;;;;;;15.23;13.07;;;;;;;21.57;95.78;100368.97;5029000;28;20033;-83
2023/09/27 07:26:13;;;;;;;13.63;12.23;;;;;;;21.55;94.32;100367.44;5029290;28;20045;-83
2023/09/27 07:28:39;;;;;;;20.00;12.63;;;;;;;21.67;94.93;100387.63;5028947;28;20034;-83
2023/09/27 07:31:05;;;;;;;13.55;11.18;;;;;;;21.76;95.64;100386.88;5029208;28;20103;-83
2023/09/27 07:33:31;;;;;;;12.20;10.52;;;;;;;22.05;95.84;100402.22;5029154;28;20061;-83
2023/09/27 07:35:58;;;;;;;13.68;11.65;;;;;;;22.06;91.98;100407.38;5028832;28;20487;-83
2023/09/27 07:38:25;;;;;;;15.23;12.60;;;;;;;22.00;93.01;100388.50;5029214;28;20040;-83
2023/09/27 07:40:50;;;;;;;14.50;13.00;;;;;;;22.20;92.33;100385.03;5028749;28;20553;-83
2023/09/27 07:43:16;;;;;;;15.05;12.63;;;;;;;22.44;91.27;100394.59;5029030;28;20121;-83
2023/09/27 07:45:47;;;;;;;14.48;12.15;;;;;;;22.55;88.93;100397.19;5028877;28;20060;-83
2023/09/27 07:48:12;;;;;;;14.35;12.43;;;;;;;22.54;88.49;100363.63;5029055;28;20033;-83
2023/09/27 07:50:38;;;;;;;13.50;11.32;;;;;;;22.78;87.86;100389.91;5063449;28;20510;-83
2023/09/27 07:53:08;;;;;;;10.73;9.63;;;;;;;22.73;86.80;100361.09;5072673;28;20039;-83
2023/09/27 07:55:46;;;;;;;11.63;9.75;;;;;;;23.09;83.63;100399.59;5072490;28;20049;-83
2023/09/27 07:58:12;;;;;;;11.10;9.50;;;;;;;23.14;82.55;100378.78;5075147;28;20025;-83
2023/09/27 08:00:40;;;;;;;9.93;8.93;;;;;;;23.49;81.73;100413.84;5074904;28;20116;-83
2023/09/27 08:03:07;;;;;;;9.98;8.95;;;;;;;23.52;79.94;100410.94;5073921;28;20383;-83
2023/09/27 08:05:42;;;;;;;12.48;9.90;;;;;;;23.31;79.11;100393.25;5073536;28;20056;-83
2023/09/27 08:08:09;;;;;;;11.63;8.80;;;;;;;23.39;79.98;100373.97;5074291;28;20078;-83
2023/09/27 08:10:35;;;;;;;9.52;8.57;;;;;;;23.71;79.70;100404.81;5074860;28;20036;-83
2023/09/27 08:13:01;;;;;;;11.68;8.55;;;;;;;23.63;77.26;100394.84;5055126;28;20029;-83
2023/09/27 08:15:28;;;;;;;8.85;7.95;;;;;;;23.80;79.64;100391.53;5074594;28;20109;-83
2023/09/27 08:17:57;;;;;;;9.70;8.52;;;;;;;24.02;78.65;100409.06;5074274;28;20459;-83
2023/09/27 08:20:25;;;;;;;11.65;8.43;;;;;;;23.93;79.03;100362.00;5074419;28;20540;-83
2023/09/27 08:22:52;;;;;;;11.32;8.10;;;;;;;24.25;77.91;100403.47;5072495;28;20408;-83
2023/09/27 08:25:17;;;;;;;9.27;8.35;;;;;;;24.43;78.47;100420.41;5074601;28;20032;-84
2023/09/27 08:27:43;;;;;;;9.32;7.85;;;;;;;24.48;78.86;100407.53;5074131;28;20027;-83
2023/09/27 08:30:09;;;;;;;18.02;8.27;;;;;;;24.25;74.98;100387.50;5074348;28;20038;-83
2023/09/27 08:32:35;;;;;;;9.75;8.02;;;;;;;24.24;76.09;100383.16;5074173;28;20113;-83
2023/09/27 08:35:02;;;;;;;8.70;6.82;;;;;;;24.29;75.37;100403.03;5080692;28;20493;-83
2023/09/27 08:37:28;;;;;;;13.25;8.73;;;;;;;24.21;75.06;100402.06;5090506;28;20051;-83
2023/09/27 08:39:56;;;;;;;10.30;7.40;;;;;;;24.06;75.93;100383.00;5063309;28;20567;-83
2023/09/27 08:42:23;;;;;;;12.43;8.50;;;;;;;24.20;76.94;100411.88;5062070;28;20155;-83
2023/09/27 08:44:49;;;;;;;9.23;8.05;;;;;;;23.82;77.46;100363.00;5063438;28;20604;-84
2023/09/27 08:47:16;;;;;;;10.00;8.02;;;;;;;23.97;76.63;100392.66;5063504;28;20376;-83
2023/09/27 08:49:41;;;;;;;8.50;7.60;;;;;;;23.87;77.28;100379.38;5063425;28;20479;-83
2023/09/27 08:52:08;;;;;;;10.68;8.45;;;;;;;23.89;78.12;100390.72;5062059;28;20029;-83
2023/09/27 08:54:34;;;;;;;11.70;8.23;;;;;;;23.79;75.47;100392.50;5066467;28;20024;-83
2023/09/27 08:57:02;;;;;;;8.48;7.63;;;;;;;23.71;76.07;100400.34;5054445;28;20068;-83
2023/09/27 08:59:28;;;;;;;13.93;8.68;;;;;;;23.61;75.80;100394.97;5073873;28;20069;-83
2023/09/27 09:01:54;;;;;;;9.98;8.23;;;;;;;23.57;77.47;100385.59;5070381;28;20118;-83
2023/09/27 09:04:19;;;;;;;9.55;7.50;;;;;;;23.60;78.20;100380.00;5073614;28;20031;-83
2023/09/27 09:06:45;;;;;;;10.65;8.45;;;;;;;23.58;78.29;100384.63;5072928;28;20024;-83
2023/09/27 09:09:11;;;;;;;12.32;8.65;;;;;;;23.76;77.76;100413.22;5072538;28;20042;-83
2023/09/27 09:11:47;;;;;;;9.07;7.85;;;;;;;23.57;78.48;100369.66;5073593;28;20028;-83
2023/09/27 09:14:17;;;;;;;8.93;7.97;;;;;;;23.83;79.24;100417.03;5073481;28;20032;-83
2023/09/27 09:16:50;;;;;;;10.05;7.72;;;;;;;23.65;78.11;100387.59;5072919;28;20035;-83
2023/09/27 09:19:19;;;;;;;8.35;7.55;;;;;;;23.79;79.16;100397.00;5073649;28;20039;-83
2023/09/27 09:21:46;;;;;;;11.95;8.25;;;;;;;23.84;78.99;100413.38;5093223;28;20067;-83
2023/09/27 09:24:20;;;;;;;9.27;7.75;;;;;;;23.73;79.66;100387.75;5093542;28;20475;-83
2023/09/27 09:26:46;;;;;;;8.70;7.70;;;;;;;23.64;79.42;100377.94;5092692;28;20214;-83
2023/09/27 09:29:15;;;;;;;14.38;7.82;;;;;;;23.69;76.84;100401.47;5091167;28;20646;-84
2023/09/27 09:31:49;;;;;;;8.93;8.02;;;;;;;23.68;77.76;100399.78;5092873;28;20031;-83
2023/09/27 09:34:15;;;;;;;7.72;6.93;;;;;;;23.63;77.98;100394.84;5093367;28;20038;-83
2023/09/27 09:36:40;;;;;;;8.65;7.53;;;;;;;23.53;77.44;100373.56;5092674;28;20151;-83
2023/09/27 09:39:14;;;;;;;9.15;8.10;;;;;;;23.71;77.96;100405.66;5093090;28;20035;-83
2023/09/27 09:41:53;;;;;;;10.90;7.40;;;;;;;23.38;78.60;100351.81;5092612;28;20050;-83
2023/09/27 09:44:19;;;;;;;9.60;8.18;;;;;;;23.54;78.52;100371.72;5093320;28;20024;-83
2023/09/27 09:46:45;;;;;;;10.70;8.65;;;;;;;23.64;76.29;100408.00;5092456;28;20512;-83
2023/09/27 09:49:11;;;;;;;9.00;8.00;;;;;;;23.46;76.70;100382.22;5093445;28;20032;-83
2023/09/27 09:51:41;;;;;;;10.40;8.68;;;;;;;23.54;77.34;100393.84;5092569;28;20114;-83
2023/09/27 09:54:08;;;;;;;13.07;9.20;;;;;;;23.58;77.04;100394.41;5092710;28;20371;-83
2023/09/27 09:56:35;;;;;;;10.68;7.97;;;;;;;23.56;76.98;100386.59;5092772;28;20497;-83
2023/09/27 09:59:07;;;;;;;13.15;8.73;;;;;;;23.55;77.46;100387.53;5093077;28;20028;-83
2023/09/27 10:01:39;;;;;;;8.98;7.93;;;;;;;23.47;78.03;100371.47;5092913;28;20035;-83
2023/09/27 10:04:08;;;;;;;9.73;8.20;;;;;;;23.41;77.26;100348.91;5092339;28;20425;-83
2023/09/27 10:06:36;;;;;;;10.95;7.88;;;;;;;23.60;76.19;100374.69;5092864;28;20028;-83
2023/09/27 10:09:05;;;;;;;9.95;7.82;;;;;;;23.64;74.53;100375.28;5091323;28;20081;-83
2023/09/27 10:11:30;;;;;;;8.52;7.70;;;;;;;23.68;74.57;100375.84;5092958;28;20031;-83
2023/09/27 10:13:56;;;;;;;8.82;7.82;;;;;;;23.70;76.02;100376.56;5092394;28;20028;-83
2023/09/27 10:16:23;;;;;;;10.52;7.10;;;;;;;23.63;75.80;100362.91;5091527;28;20035;-83
2023/09/27 10:18:49;;;;;;;10.50;7.43;;;;;;;23.52;74.63;100341.78;5091198;28;20379;-83
2023/09/27 10:21:15;;;;;;;11.55;7.50;;;;;;;23.58;74.44;100346.56;5092564;28;20032;-83
2023/09/27 10:23:43;;;;;;;10.27;7.90;;;;;;;23.79;72.50;100381.88;5091267;28;20031;-83
2023/09/27 10:26:33;;;;;;;12.50;7.60;;;;;;;23.67;72.79;100361.69;5092848;28;20352;-83
2023/09/27 10:29:04;;;;;;;10.65;6.82;;;;;;;23.83;72.55;100379.78;5072792;28;20035;-83
2023/09/27 10:31:30;;;;;;;9.00;6.85;;;;;;;23.85;73.48;100375.16;5090079;28;20100;-84
2023/09/27 10:33:56;;;;;;;7.43;6.40;;;;;;;23.85;70.51;100360.06;5081065;28;20047;-83
2023/09/27 10:36:24;;;;;;;12.20;6.80;;;;;;;23.90;71.12;100373.78;5029686;28;20057;-83
2023/09/27 10:38:49;;;;;;;10.50;6.95;;;;;;;23.93;70.76;100371.78;5029178;28;20496;-83
2023/09/27 10:41:32;;;;;;;10.93;6.80;;;;;;;23.96;70.92;100367.03;5029211;28;20057;-83
2023/09/27 10:44:02;;;;;;;8.77;6.43;;;;;;;23.99;70.60;100352.63;5012830;28;20484;-83
2023/09/27 10:46:41;;;;;;;8.48;7.47;;;;;;;23.90;70.95;100341.84;5029304;28;20393;-83
2023/09/27 10:49:06;;;;;;;10.18;7.60;;;;;;;23.98;70.48;100342.97;5029257;28;20579;-83
2023/09/27 10:51:32;;;;;;;11.23;6.38;;;;;;;24.00;69.17;100341.00;5029239;28;20068;-83
2023/09/27 10:53:57;;;;;;;8.80;6.00;;;;;;;24.04;70.38;100337.06;5029146;28;20038;-83
2023/09/27 10:56:23;;;;;;;10.35;6.32;;;;;;;24.10;70.87;100344.47;5029231;28;20034;-84
2023/09/27 10:58:52;;;;;;;13.30;7.35;;;;;;;24.13;71.54;100337.06;5028871;28;20072;-83
2023/09/27 11:01:20;;;;;;;8.20;6.30;;;;;;;24.11;71.96;100328.38;5012643;28;20547;-83
2023/09/27 11:03:46;;;;;;;11.73;7.05;;;;;;;23.85;71.88;100280.25;5029242;28;20029;-83